BOX159 EDDF-EDDP
Flight info
| Callsign | BOX159 |
|---|---|
| Flight time | 1h 3m |
| Altitude | 23000 |
| Route | SULUS7S/18 SULUS Z12 LASGA/N0439F220 T953 VOCIM/N0433F210 T954 GOXLI GOXLI1V |
| Aircraft | B77L/H-SDE1E2E3FGHIJ2J3J4J5M1RWXY/LB1D1 |
Departure
| Time | 2026-05-04 14:36 |
|---|---|
| Airport | Frankfurt Main Airport (EDDF) |
Arrival
| Time | 2026-05-04 15:39 |
|---|---|
| Airport | Leipzig/Halle Airport (EDDP) |
| Time | Latitude | Longitude | Altitude | Speed | Heading |
|---|---|---|---|---|---|
| 2026-05-04 14:08 | 50.03820 | 8.53495 | 358 ft | 0 kts | 340° |
| 2026-05-04 14:28 | 50.03813 | 8.53499 | 359 ft | 3 kts | 340° |
| 2026-05-04 14:28 | 50.03794 | 8.53509 | 358 ft | 3 kts | 342° |
| 2026-05-04 14:29 | 50.03755 | 8.53525 | 358 ft | 3 kts | 352° |
| 2026-05-04 14:29 | 50.03721 | 8.53521 | 355 ft | 3 kts | 65° |
| 2026-05-04 14:30 | 50.03716 | 8.53521 | 355 ft | 1 kts | 132° |
| 2026-05-04 14:30 | 50.03716 | 8.53520 | 355 ft | 0 kts | 134° |
| 2026-05-04 14:32 | 50.03712 | 8.53528 | 357 ft | 3 kts | 134° |
| 2026-05-04 14:32 | 50.03663 | 8.53574 | 355 ft | 15 kts | 173° |
| 2026-05-04 14:33 | 50.03599 | 8.53448 | 350 ft | 17 kts | 257° |
| 2026-05-04 14:33 | 50.03569 | 8.53270 | 349 ft | 18 kts | 251° |
| 2026-05-04 14:33 | 50.03520 | 8.53069 | 354 ft | 21 kts | 250° |
| 2026-05-04 14:33 | 50.03467 | 8.52854 | 337 ft | 22 kts | 246° |
| 2026-05-04 14:34 | 50.03417 | 8.52667 | 336 ft | 16 kts | 243° |
| 2026-05-04 14:34 | 50.03333 | 8.52596 | 337 ft | 0 kts | 180° |
| 2026-05-04 14:35 | 50.03300 | 8.52596 | 336 ft | 19 kts | 180° |
| 2026-05-04 14:35 | 50.02943 | 8.52599 | 340 ft | 87 kts | 180° |
| 2026-05-04 14:35 | 50.02121 | 8.52607 | 336 ft | 147 kts | 180° |
| 2026-05-04 14:35 | 50.00971 | 8.52607 | 538 ft | 171 kts | 180° |
| 2026-05-04 14:36 | 49.99788 | 8.52681 | 1162 ft | 173 kts | 180° |
| 2026-05-04 14:36 | 49.98499 | 8.52747 | 1417 ft | 199 kts | 184° |
| 2026-05-04 14:36 | 49.97078 | 8.52790 | 1667 ft | 216 kts | 169° |
| 2026-05-04 14:36 | 49.95785 | 8.54084 | 2079 ft | 236 kts | 127° |
| 2026-05-04 14:37 | 49.94964 | 8.56423 | 2351 ft | 259 kts | 117° |
| 2026-05-04 14:37 | 49.94139 | 8.58970 | 3002 ft | 266 kts | 118° |
| 2026-05-04 14:37 | 49.93288 | 8.61539 | 3688 ft | 267 kts | 118° |
| 2026-05-04 14:37 | 49.92412 | 8.64131 | 3981 ft | 273 kts | 119° |
| 2026-05-04 14:38 | 49.91515 | 8.66734 | 4102 ft | 273 kts | 119° |
| 2026-05-04 14:38 | 49.90602 | 8.69348 | 4786 ft | 278 kts | 120° |
| 2026-05-04 14:38 | 49.89684 | 8.71947 | 5770 ft | 272 kts | 121° |
| 2026-05-04 14:38 | 49.88772 | 8.74511 | 6699 ft | 271 kts | 121° |
| 2026-05-04 14:39 | 49.87865 | 8.77045 | 7482 ft | 273 kts | 122° |
| 2026-05-04 14:39 | 49.86931 | 8.79639 | 8224 ft | 278 kts | 122° |
| 2026-05-04 14:39 | 49.85989 | 8.82250 | 9204 ft | 278 kts | 122° |
| 2026-05-04 14:40 | 49.84070 | 8.87548 | 10793 ft | 294 kts | 123° |
| 2026-05-04 14:40 | 49.83065 | 8.90478 | 10944 ft | 321 kts | 114° |
| 2026-05-04 14:40 | 49.82729 | 8.94047 | 11124 ft | 355 kts | 88° |
| 2026-05-04 14:40 | 49.83214 | 8.97919 | 11374 ft | 378 kts | 79° |
| 2026-05-04 14:41 | 49.83859 | 9.01931 | 12232 ft | 389 kts | 78° |
| 2026-05-04 14:41 | 49.84518 | 9.06035 | 13185 ft | 395 kts | 78° |
| 2026-05-04 14:41 | 49.85792 | 9.14294 | 14991 ft | 402 kts | 79° |
| 2026-05-04 14:42 | 49.87063 | 9.22902 | 16394 ft | 416 kts | 79° |
| 2026-05-04 14:42 | 49.87699 | 9.27311 | 17130 ft | 422 kts | 79° |
| 2026-05-04 14:42 | 49.87814 | 9.28119 | 17265 ft | 423 kts | 79° |
| 2026-05-04 14:43 | 49.88427 | 9.32410 | 17953 ft | 428 kts | 79° |
| 2026-05-04 14:43 | 49.89073 | 9.36955 | 18616 ft | 434 kts | 79° |
| 2026-05-04 14:43 | 49.89715 | 9.41489 | 19239 ft | 439 kts | 80° |
| 2026-05-04 14:43 | 49.90372 | 9.46141 | 19894 ft | 444 kts | 80° |
| 2026-05-04 14:44 | 49.91032 | 9.50835 | 20526 ft | 448 kts | 80° |
| 2026-05-04 14:44 | 49.91699 | 9.55591 | 21134 ft | 454 kts | 80° |
| 2026-05-04 14:44 | 49.92373 | 9.60402 | 21712 ft | 459 kts | 80° |
| 2026-05-04 14:44 | 49.93051 | 9.65270 | 22323 ft | 464 kts | 80° |
| 2026-05-04 14:45 | 49.93735 | 9.70189 | 22912 ft | 468 kts | 80° |
| 2026-05-04 14:45 | 49.94424 | 9.75165 | 22975 ft | 479 kts | 80° |
| 2026-05-04 14:45 | 49.95130 | 9.80284 | 22985 ft | 489 kts | 80° |
| 2026-05-04 14:45 | 49.95842 | 9.85467 | 22982 ft | 492 kts | 80° |
| 2026-05-04 14:46 | 49.96556 | 9.90657 | 22966 ft | 491 kts | 80° |
| 2026-05-04 14:46 | 49.97256 | 9.95768 | 22962 ft | 490 kts | 80° |
| 2026-05-04 14:46 | 49.97938 | 10.00767 | 22962 ft | 489 kts | 80° |
| 2026-05-04 14:46 | 49.98640 | 10.05934 | 22966 ft | 488 kts | 80° |
| 2026-05-04 14:47 | 49.99338 | 10.11097 | 22958 ft | 488 kts | 80° |
| 2026-05-04 14:47 | 50.00032 | 10.16253 | 22958 ft | 487 kts | 80° |
| 2026-05-04 14:47 | 50.00727 | 10.21405 | 22958 ft | 487 kts | 80° |
| 2026-05-04 14:47 | 50.01427 | 10.26554 | 22970 ft | 487 kts | 80° |
| 2026-05-04 14:48 | 50.02122 | 10.31703 | 22969 ft | 487 kts | 80° |
| 2026-05-04 14:48 | 50.02809 | 10.36850 | 22969 ft | 487 kts | 80° |
| 2026-05-04 14:48 | 50.03481 | 10.41942 | 22972 ft | 487 kts | 80° |
| 2026-05-04 14:48 | 50.04158 | 10.47110 | 22965 ft | 488 kts | 81° |
| 2026-05-04 14:49 | 50.04833 | 10.52284 | 22966 ft | 488 kts | 81° |
| 2026-05-04 14:49 | 50.05507 | 10.57462 | 22955 ft | 488 kts | 81° |
| 2026-05-04 14:49 | 50.06179 | 10.62642 | 22966 ft | 488 kts | 81° |
| 2026-05-04 14:49 | 50.06964 | 10.67779 | 22969 ft | 489 kts | 74° |
| 2026-05-04 14:50 | 50.08264 | 10.72684 | 22969 ft | 492 kts | 64° |
| 2026-05-04 14:50 | 50.10017 | 10.77269 | 22974 ft | 494 kts | 56° |
| 2026-05-04 14:50 | 50.12163 | 10.81355 | 22975 ft | 495 kts | 47° |
| 2026-05-04 14:50 | 50.14531 | 10.85250 | 22988 ft | 495 kts | 46° |
| 2026-05-04 14:51 | 50.16890 | 10.89161 | 22989 ft | 495 kts | 47° |
| 2026-05-04 14:51 | 50.19209 | 10.93129 | 22987 ft | 494 kts | 48° |
| 2026-05-04 14:51 | 50.21501 | 10.97127 | 22985 ft | 494 kts | 49° |
| 2026-05-04 14:51 | 50.23712 | 11.01009 | 22981 ft | 493 kts | 49° |
| 2026-05-04 14:52 | 50.25986 | 11.05006 | 22979 ft | 493 kts | 49° |
| 2026-05-04 14:52 | 50.28268 | 11.09015 | 22983 ft | 492 kts | 49° |
| 2026-05-04 14:52 | 50.30539 | 11.13003 | 22976 ft | 491 kts | 48° |
| 2026-05-04 14:52 | 50.32820 | 11.16961 | 22971 ft | 485 kts | 45° |
| 2026-05-04 14:53 | 50.35438 | 11.20144 | 22975 ft | 483 kts | 27° |
| 2026-05-04 14:53 | 50.38551 | 11.22056 | 22993 ft | 481 kts | 12° |
| 2026-05-04 14:53 | 50.41849 | 11.22695 | 22971 ft | 476 kts | 356° |
| 2026-05-04 14:53 | 50.45140 | 11.22380 | 22988 ft | 474 kts | 353° |
| 2026-05-04 14:54 | 50.48442 | 11.21993 | 22976 ft | 477 kts | 353° |
| 2026-05-04 14:54 | 50.51759 | 11.21661 | 22976 ft | 479 kts | 354° |
| 2026-05-04 14:54 | 50.55093 | 11.21393 | 22980 ft | 480 kts | 355° |
| 2026-05-04 14:54 | 50.58393 | 11.21167 | 22992 ft | 482 kts | 356° |
| 2026-05-04 14:55 | 50.61752 | 11.21420 | 22977 ft | 486 kts | 5° |
| 2026-05-04 14:55 | 50.65079 | 11.22443 | 22984 ft | 488 kts | 13° |
| 2026-05-04 14:55 | 50.68311 | 11.24122 | 22967 ft | 490 kts | 21° |
| 2026-05-04 14:55 | 50.71412 | 11.26354 | 22983 ft | 490 kts | 24° |
| 2026-05-04 14:56 | 50.74486 | 11.28669 | 22979 ft | 489 kts | 24° |
| 2026-05-04 14:56 | 50.77552 | 11.30988 | 22965 ft | 488 kts | 24° |
| 2026-05-04 14:56 | 50.80617 | 11.33284 | 22975 ft | 487 kts | 23° |
| 2026-05-04 14:56 | 50.83671 | 11.35545 | 22969 ft | 485 kts | 23° |
| 2026-05-04 14:57 | 50.86691 | 11.37763 | 22972 ft | 484 kts | 23° |
| 2026-05-04 14:57 | 50.89748 | 11.40000 | 22975 ft | 484 kts | 23° |
| 2026-05-04 14:57 | 50.92802 | 11.42235 | 22971 ft | 483 kts | 23° |
| 2026-05-04 14:57 | 50.95851 | 11.44473 | 22972 ft | 480 kts | 23° |
| 2026-05-04 14:58 | 50.98841 | 11.46673 | 22960 ft | 467 kts | 23° |
| 2026-05-04 14:58 | 51.01748 | 11.48815 | 22963 ft | 458 kts | 23° |
| 2026-05-04 14:58 | 51.04633 | 11.50943 | 22970 ft | 457 kts | 23° |
| 2026-05-04 14:58 | 51.06542 | 11.52353 | 22963 ft | 455 kts | 24° |
| 2026-05-04 14:59 | 51.10076 | 11.55850 | 22320 ft | 453 kts | 40° |
| 2026-05-04 14:59 | 51.12251 | 11.59450 | 21763 ft | 451 kts | 51° |
| 2026-05-04 14:59 | 51.15325 | 11.68054 | 20536 ft | 446 kts | 64° |
| 2026-05-04 15:00 | 51.16699 | 11.72467 | 19993 ft | 443 kts | 63° |
| 2026-05-04 15:00 | 51.18085 | 11.76829 | 19501 ft | 439 kts | 63° |
| 2026-05-04 15:00 | 51.19479 | 11.81129 | 19008 ft | 436 kts | 62° |
| 2026-05-04 15:01 | 51.22076 | 11.89519 | 17276 ft | 413 kts | 70° |
| 2026-05-04 15:01 | 51.22913 | 11.93862 | 15961 ft | 407 kts | 77° |
| 2026-05-04 15:01 | 51.23412 | 11.98195 | 15463 ft | 387 kts | 85° |
| 2026-05-04 15:01 | 51.23633 | 12.02332 | 15026 ft | 386 kts | 87° |
| 2026-05-04 15:02 | 51.23819 | 12.06616 | 14574 ft | 389 kts | 87° |
| 2026-05-04 15:02 | 51.24013 | 12.10967 | 14112 ft | 397 kts | 87° |
| 2026-05-04 15:02 | 51.24215 | 12.15374 | 13614 ft | 400 kts | 87° |
| 2026-05-04 15:02 | 51.24424 | 12.19796 | 13069 ft | 399 kts | 87° |
| 2026-05-04 15:03 | 51.24632 | 12.24189 | 12562 ft | 395 kts | 87° |
| 2026-05-04 15:03 | 51.24833 | 12.28477 | 12077 ft | 391 kts | 87° |
| 2026-05-04 15:03 | 51.25041 | 12.32776 | 11597 ft | 386 kts | 85° |
| 2026-05-04 15:03 | 51.25484 | 12.36987 | 11133 ft | 383 kts | 77° |
| 2026-05-04 15:04 | 51.26215 | 12.41032 | 10939 ft | 373 kts | 71° |
| 2026-05-04 15:04 | 51.27187 | 12.44850 | 10938 ft | 375 kts | 66° |
| 2026-05-04 15:04 | 51.28259 | 12.48712 | 10961 ft | 384 kts | 66° |
| 2026-05-04 15:04 | 51.29340 | 12.52642 | 10963 ft | 387 kts | 66° |
| 2026-05-04 15:05 | 51.30358 | 12.56553 | 10961 ft | 386 kts | 71° |
| 2026-05-04 15:05 | 51.31086 | 12.60668 | 10952 ft | 384 kts | 78° |
| 2026-05-04 15:05 | 51.31528 | 12.64879 | 10623 ft | 379 kts | 85° |
| 2026-05-04 15:05 | 51.31719 | 12.68987 | 9776 ft | 363 kts | 88° |
| 2026-05-04 15:06 | 51.31856 | 12.72941 | 8793 ft | 351 kts | 88° |
| 2026-05-04 15:06 | 51.31995 | 12.76775 | 7865 ft | 340 kts | 87° |
| 2026-05-04 15:06 | 51.32142 | 12.80492 | 7017 ft | 330 kts | 87° |
| 2026-05-04 15:07 | 51.32417 | 12.87123 | 6728 ft | 276 kts | 87° |
| 2026-05-04 15:07 | 51.32556 | 12.90159 | 5969 ft | 274 kts | 82° |
| 2026-05-04 15:07 | 51.33225 | 12.92931 | 5062 ft | 274 kts | 49° |
| 2026-05-04 15:07 | 51.34745 | 12.94632 | 4226 ft | 268 kts | 15° |
| 2026-05-04 15:08 | 51.36553 | 12.94876 | 3638 ft | 256 kts | 348° |
| 2026-05-04 15:08 | 51.38188 | 12.94015 | 3474 ft | 242 kts | 328° |
| 2026-05-04 15:08 | 51.39458 | 12.92364 | 3311 ft | 229 kts | 310° |
| 2026-05-04 15:08 | 51.40255 | 12.90291 | 3121 ft | 212 kts | 288° |
| 2026-05-04 15:09 | 51.40577 | 12.88025 | 3056 ft | 217 kts | 277° |
| 2026-05-04 15:09 | 51.40771 | 12.85447 | 3059 ft | 248 kts | 276° |
| 2026-05-04 15:09 | 51.40957 | 12.82707 | 3015 ft | 245 kts | 276° |
| 2026-05-04 15:10 | 51.41331 | 12.77312 | 3018 ft | 245 kts | 276° |
| 2026-05-04 15:10 | 51.41525 | 12.74590 | 3034 ft | 247 kts | 276° |
| 2026-05-04 15:10 | 51.41921 | 12.69081 | 3017 ft | 248 kts | 276° |
| 2026-05-04 15:11 | 51.42121 | 12.66350 | 3003 ft | 246 kts | 276° |
| 2026-05-04 15:11 | 51.42317 | 12.63642 | 3017 ft | 245 kts | 276° |
| 2026-05-04 15:11 | 51.42511 | 12.60979 | 3021 ft | 240 kts | 276° |
| 2026-05-04 15:11 | 51.42696 | 12.58405 | 2990 ft | 224 kts | 276° |
| 2026-05-04 15:12 | 51.42825 | 12.56036 | 3019 ft | 203 kts | 269° |
| 2026-05-04 15:12 | 51.42742 | 12.53876 | 3022 ft | 186 kts | 265° |
| 2026-05-04 15:12 | 51.42642 | 12.51912 | 3002 ft | 171 kts | 265° |
| 2026-05-04 15:12 | 51.42549 | 12.49989 | 3021 ft | 175 kts | 265° |
| 2026-05-04 15:13 | 51.42457 | 12.48037 | 3033 ft | 176 kts | 265° |
| 2026-05-04 15:13 | 51.42365 | 12.46119 | 3020 ft | 174 kts | 265° |
| 2026-05-04 15:13 | 51.42274 | 12.44156 | 2752 ft | 175 kts | 265° |
| 2026-05-04 15:13 | 51.42185 | 12.42278 | 2515 ft | 163 kts | 266° |
| 2026-05-04 15:14 | 51.42103 | 12.40522 | 2347 ft | 155 kts | 265° |
| 2026-05-04 15:14 | 51.42021 | 12.38798 | 2140 ft | 155 kts | 265° |
| 2026-05-04 15:14 | 51.41942 | 12.37097 | 1908 ft | 150 kts | 266° |
| 2026-05-04 15:14 | 51.41864 | 12.35460 | 1710 ft | 142 kts | 266° |
| 2026-05-04 15:15 | 51.41791 | 12.33892 | 1523 ft | 142 kts | 266° |
| 2026-05-04 15:15 | 51.41715 | 12.32311 | 1389 ft | 143 kts | 264° |
| 2026-05-04 15:15 | 51.41657 | 12.31250 | 1241 ft | 147 kts | 265° |
| 2026-05-04 15:16 | 51.41490 | 12.27542 | 783 ft | 144 kts | 266° |
| 2026-05-04 15:16 | 51.41416 | 12.25942 | 561 ft | 142 kts | 266° |
| 2026-05-04 15:16 | 51.41261 | 12.22514 | 1068 ft | 179 kts | 264° |
| 2026-05-04 15:17 | 51.41130 | 12.20590 | 1362 ft | 169 kts | 263° |
| 2026-05-04 15:17 | 51.40832 | 12.17268 | 1250 ft | 206 kts | 260° |
| 2026-05-04 15:17 | 51.40522 | 12.14996 | 1090 ft | 208 kts | 247° |
| 2026-05-04 15:18 | 51.39409 | 12.12677 | 1541 ft | 199 kts | 215° |
| 2026-05-04 15:18 | 51.38154 | 12.11647 | 2493 ft | 210 kts | 202° |
| 2026-05-04 15:18 | 51.36768 | 12.10796 | 2965 ft | 215 kts | 201° |
| 2026-05-04 15:19 | 51.34188 | 12.10200 | 2879 ft | 250 kts | 161° |
| 2026-05-04 15:19 | 51.32726 | 12.11678 | 2658 ft | 251 kts | 134° |
| 2026-05-04 15:19 | 51.31152 | 12.16548 | 2500 ft | 245 kts | 101° |
| 2026-05-04 15:20 | 51.30909 | 12.19253 | 2887 ft | 251 kts | 96° |
| 2026-05-04 15:20 | 51.30743 | 12.22084 | 3319 ft | 259 kts | 95° |
| 2026-05-04 15:20 | 51.30590 | 12.24974 | 3702 ft | 261 kts | 95° |
| 2026-05-04 15:20 | 51.30442 | 12.27870 | 4103 ft | 261 kts | 95° |
| 2026-05-04 15:21 | 51.30292 | 12.30776 | 4527 ft | 263 kts | 95° |
| 2026-05-04 15:21 | 51.30142 | 12.33664 | 4852 ft | 266 kts | 95° |
| 2026-05-04 15:21 | 51.29821 | 12.39611 | 4909 ft | 267 kts | 95° |
| 2026-05-04 15:22 | 51.29660 | 12.42558 | 4960 ft | 266 kts | 95° |
| 2026-05-04 15:22 | 51.29497 | 12.45506 | 5009 ft | 267 kts | 95° |
| 2026-05-04 15:22 | 51.29164 | 12.51433 | 5021 ft | 270 kts | 96° |
| 2026-05-04 15:23 | 51.28998 | 12.54383 | 5020 ft | 271 kts | 96° |
| 2026-05-04 15:23 | 51.28827 | 12.57378 | 5024 ft | 271 kts | 96° |
| 2026-05-04 15:23 | 51.28656 | 12.60385 | 5034 ft | 272 kts | 96° |
| 2026-05-04 15:23 | 51.28482 | 12.63404 | 5027 ft | 273 kts | 96° |
| 2026-05-04 15:24 | 51.28132 | 12.69445 | 5023 ft | 273 kts | 96° |
| 2026-05-04 15:24 | 51.27781 | 12.75467 | 5015 ft | 271 kts | 96° |
| 2026-05-04 15:25 | 51.27606 | 12.78456 | 5024 ft | 270 kts | 96° |
| 2026-05-04 15:25 | 51.27433 | 12.81399 | 5016 ft | 269 kts | 96° |
| 2026-05-04 15:25 | 51.27257 | 12.84370 | 5020 ft | 268 kts | 96° |
| 2026-05-04 15:26 | 51.26905 | 12.90284 | 5016 ft | 267 kts | 96° |
| 2026-05-04 15:26 | 51.26727 | 12.93231 | 5015 ft | 267 kts | 96° |
| 2026-05-04 15:26 | 51.26736 | 12.98924 | 5005 ft | 249 kts | 69° |
| 2026-05-04 15:27 | 51.27614 | 13.01218 | 5048 ft | 254 kts | 46° |
| 2026-05-04 15:27 | 51.30672 | 13.03390 | 5024 ft | 242 kts | 358° |
| 2026-05-04 15:28 | 51.33687 | 13.01518 | 5018 ft | 232 kts | 316° |
| 2026-05-04 15:28 | 51.34806 | 12.99695 | 5033 ft | 229 kts | 310° |
| 2026-05-04 15:28 | 51.36922 | 12.95888 | 4964 ft | 229 kts | 310° |
| 2026-05-04 15:29 | 51.37962 | 12.94035 | 4942 ft | 218 kts | 310° |
| 2026-05-04 15:30 | 51.41825 | 12.87219 | 4925 ft | 202 kts | 310° |
| 2026-05-04 15:30 | 51.43479 | 12.81331 | 4925 ft | 190 kts | 286° |
| 2026-05-04 15:31 | 51.43800 | 12.77255 | 4727 ft | 184 kts | 267° |
| 2026-05-04 15:31 | 51.43724 | 12.75235 | 4702 ft | 184 kts | 266° |
| 2026-05-04 15:32 | 51.43446 | 12.69126 | 4616 ft | 179 kts | 265° |
| 2026-05-04 15:32 | 51.43258 | 12.65127 | 4596 ft | 181 kts | 266° |
| 2026-05-04 15:33 | 51.43070 | 12.61107 | 4587 ft | 181 kts | 265° |
| 2026-05-04 15:34 | 51.42785 | 12.55061 | 4053 ft | 180 kts | 265° |
| 2026-05-04 15:34 | 51.42691 | 12.53066 | 3805 ft | 179 kts | 265° |
| 2026-05-04 15:34 | 51.42505 | 12.49083 | 3341 ft | 177 kts | 265° |
| 2026-05-04 15:35 | 51.42323 | 12.45240 | 2882 ft | 169 kts | 265° |
| 2026-05-04 15:35 | 51.42238 | 12.43380 | 2667 ft | 172 kts | 265° |
| 2026-05-04 15:35 | 51.42147 | 12.41491 | 2445 ft | 169 kts | 266° |
| 2026-05-04 15:36 | 51.41972 | 12.37731 | 1988 ft | 163 kts | 265° |
| 2026-05-04 15:36 | 51.41889 | 12.35997 | 1794 ft | 150 kts | 264° |
| 2026-05-04 15:36 | 51.41815 | 12.34384 | 1605 ft | 144 kts | 265° |
| 2026-05-04 15:37 | 51.41739 | 12.32774 | 1421 ft | 144 kts | 266° |
| 2026-05-04 15:37 | 51.41664 | 12.31180 | 1201 ft | 143 kts | 265° |
| 2026-05-04 15:37 | 51.41580 | 12.29595 | 992 ft | 141 kts | 267° |
| 2026-05-04 15:37 | 51.41521 | 12.28047 | 814 ft | 142 kts | 267° |
| 2026-05-04 15:38 | 51.41441 | 12.26463 | 641 ft | 145 kts | 267° |
| 2026-05-04 15:38 | 51.41360 | 12.24839 | 473 ft | 143 kts | 268° |
| 2026-05-04 15:38 | 51.41297 | 12.23399 | 469 ft | 113 kts | 265° |
| 2026-05-04 15:38 | 51.41247 | 12.22341 | 461 ft | 78 kts | 264° |
| 2026-05-04 15:39 | 51.41220 | 12.21956 | 461 ft | 22 kts | 257° |
| 2026-05-04 15:39 | 51.41150 | 12.21735 | 459 ft | 11 kts | 237° |
| 2026-05-04 15:39 | 51.41132 | 12.21699 | 459 ft | 1 kts | 225° |
| 2026-05-04 15:40 | 51.41130 | 12.21696 | 459 ft | 0 kts | 225° |
| 2026-05-04 15:40 | 51.41107 | 12.21668 | 460 ft | 13 kts | 207° |
| 2026-05-04 15:41 | 51.41052 | 12.21786 | 463 ft | 16 kts | 87° |
| 2026-05-04 15:41 | 51.41061 | 12.21971 | 461 ft | 19 kts | 86° |
| 2026-05-04 15:41 | 51.41075 | 12.22280 | 460 ft | 34 kts | 85° |
| 2026-05-04 15:41 | 51.41093 | 12.22648 | 462 ft | 32 kts | 87° |
| 2026-05-04 15:42 | 51.41108 | 12.22984 | 469 ft | 30 kts | 86° |
| 2026-05-04 15:42 | 51.41123 | 12.23314 | 472 ft | 30 kts | 85° |
| 2026-05-04 15:42 | 51.41140 | 12.23650 | 473 ft | 30 kts | 85° |
| 2026-05-04 15:42 | 51.41153 | 12.23980 | 469 ft | 30 kts | 85° |
| 2026-05-04 15:43 | 51.41171 | 12.24312 | 468 ft | 30 kts | 85° |
| 2026-05-04 15:43 | 51.41172 | 12.24531 | 468 ft | 14 kts | 110° |
| 2026-05-04 15:43 | 51.41105 | 12.24613 | 467 ft | 10 kts | 132° |
| 2026-05-04 15:43 | 51.41044 | 12.24648 | 473 ft | 10 kts | 176° |
| 2026-05-04 15:44 | 51.40981 | 12.24681 | 469 ft | 10 kts | 126° |
| 2026-05-04 15:44 | 51.40981 | 12.24792 | 473 ft | 10 kts | 84° |
| 2026-05-04 15:44 | 51.40982 | 12.24816 | 473 ft | 0 kts | 85° |